Time;durP1;ratioP1;P1;durP2;ratioP2;P2;SDS_P1;SDS_P2;PMS_P1;PMS_P2;Temp;Humidity;BMP_temperature;BMP_pressure;BME280_temperature;BME280_humidity;BME280_pressure;Samples;Min_cycle;Max_cycle;Signal;HPM_P1;HPM_P2
2023/07/25 00:00:58;;;;;;;3.50;3.20;;;22.00;65.30;;;;;;5052467;28;20188;-45
2023/07/25 00:03:24;;;;;;;2.93;2.53;;;22.00;65.80;;;;;;5052928;28;20315;-46
2023/07/25 00:05:49;;;;;;;3.57;3.27;;;22.00;65.90;;;;;;5052543;28;20228;-45
2023/07/25 00:08:15;;;;;;;4.67;3.13;;;22.00;66.00;;;;;;5051477;28;20197;-43
2023/07/25 00:10:41;;;;;;;3.10;2.40;;;22.00;66.00;;;;;;5052294;28;20188;-45
2023/07/25 00:13:06;;;;;;;4.10;2.97;;;22.00;65.90;;;;;;5052712;28;20701;-46
2023/07/25 00:15:32;;;;;;;3.07;2.77;;;21.90;66.20;;;;;;5052233;28;20719;-44
2023/07/25 00:17:57;;;;;;;3.37;3.07;;;21.90;66.30;;;;;;5052996;28;20257;-46
2023/07/25 00:20:23;;;;;;;4.00;3.60;;;21.70;67.20;;;;;;5052151;28;20271;-44
2023/07/25 00:22:49;;;;;;;3.00;2.70;;;21.80;67.30;;;;;;5052524;28;20668;-44
2023/07/25 00:25:15;;;;;;;3.37;2.80;;;21.80;67.10;;;;;;5052189;28;20247;-44
2023/07/25 00:27:41;;;;;;;3.40;3.00;;;21.90;67.00;;;;;;5052680;28;20563;-43
2023/07/25 00:30:07;;;;;;;5.30;2.83;;;21.90;66.90;;;;;;5052162;28;20420;-43
2023/07/25 00:32:33;;;;;;;4.57;3.50;;;21.90;66.80;;;;;;5052443;28;20206;-44
2023/07/25 00:34:59;;;;;;;4.33;3.00;;;22.00;66.80;;;;;;5050508;28;20431;-43
2023/07/25 00:37:30;;;;;;;3.13;2.83;;;21.90;66.70;;;;;;5052558;28;20965;-43
2023/07/25 00:39:56;;;;;;;4.13;3.20;;;22.00;66.90;;;;;;5052160;28;20656;-43
2023/07/25 00:42:22;;;;;;;3.27;2.97;;;21.90;66.70;;;;;;5052085;28;20937;-43
2023/07/25 00:44:47;;;;;;;3.30;3.00;;;22.00;66.90;;;;;;5051809;28;20431;-43
2023/07/25 00:47:14;;;;;;;5.90;3.27;;;21.90;66.90;;;;;;5052425;28;20280;-43
2023/07/25 00:49:42;;;;;;;3.53;3.10;;;22.00;66.90;;;;;;5051618;28;20227;-44
2023/07/25 00:52:08;;;;;;;3.90;3.43;;;21.90;66.90;;;;;;5052295;28;20418;-43
2023/07/25 00:54:37;;;;;;;3.50;3.20;;;21.90;67.50;;;;;;5051621;28;20506;-43
2023/07/25 00:57:03;;;;;;;4.07;3.03;;;21.90;67.40;;;;;;5051962;28;20510;-45
2023/07/25 00:59:29;;;;;;;4.00;3.30;;;21.90;67.40;;;;;;5052010;28;20459;-43
2023/07/25 01:01:54;;;;;;;3.33;2.73;;;21.80;67.60;;;;;;5049169;28;20199;-43
2023/07/25 01:04:20;;;;;;;4.27;3.30;;;21.70;68.00;;;;;;5051790;28;20220;-43
2023/07/25 01:06:46;;;;;;;3.50;3.20;;;21.50;68.10;;;;;;5051227;28;20283;-43
2023/07/25 01:09:12;;;;;;;3.23;2.93;;;21.20;70.00;;;;;;5051710;28;20188;-43
2023/07/25 01:11:37;;;;;;;4.80;3.47;;;21.10;70.70;;;;;;5051170;28;20507;-43
2023/07/25 01:14:03;;;;;;;3.60;3.30;;;20.90;71.10;;;;;;5051132;28;20680;-44
2023/07/25 01:16:29;;;;;;;4.27;3.93;;;20.80;71.20;;;;;;5051317;28;20191;-45
2023/07/25 01:18:56;;;;;;;6.57;4.10;;;20.80;72.00;;;;;;5051732;28;20279;-44
2023/07/25 01:21:22;;;;;;;4.13;3.77;;;20.60;72.60;;;;;;5051693;28;20444;-43
2023/07/25 01:23:48;;;;;;;3.70;3.40;;;20.70;72.50;;;;;;5051416;28;20843;-43
2023/07/25 01:26:16;;;;;;;4.10;3.33;;;20.60;73.00;;;;;;5051182;28;20469;-43
2023/07/25 01:28:41;;;;;;;3.90;3.50;;;20.80;72.40;;;;;;5050172;28;20427;-44
2023/07/25 01:31:07;;;;;;;4.10;3.60;;;20.80;71.60;;;;;;5050784;28;20419;-43
2023/07/25 01:33:32;;;;;;;3.30;3.00;;;20.70;71.90;;;;;;5051191;28;21675;-43
2023/07/25 01:36:00;;;;;;;5.57;3.43;;;20.60;72.60;;;;;;5051289;28;20196;-43
2023/07/25 01:38:25;;;;;;;3.30;3.00;;;20.40;73.60;;;;;;5051194;28;20213;-43
2023/07/25 01:40:51;;;;;;;3.33;3.00;;;20.40;73.90;;;;;;5051122;28;20434;-43
2023/07/25 01:43:16;;;;;;;6.40;3.70;;;20.40;74.10;;;;;;5051279;28;20200;-43
2023/07/25 01:45:42;;;;;;;5.10;3.30;;;20.50;73.90;;;;;;5050948;28;20192;-43
2023/07/25 01:48:07;;;;;;;3.60;3.27;;;20.40;74.00;;;;;;5051303;28;20701;-43
2023/07/25 01:50:33;;;;;;;4.80;3.10;;;20.30;74.60;;;;;;5050607;28;20191;-43
2023/07/25 01:52:59;;;;;;;3.23;2.93;;;20.20;75.50;;;;;;5051176;28;20200;-43
2023/07/25 01:55:24;;;;;;;3.30;2.97;;;20.30;75.00;;;;;;5049270;28;20189;-47
2023/07/25 01:57:50;;;;;;;4.20;3.43;;;20.40;74.70;;;;;;5050785;28;20867;-46
2023/07/25 02:00:15;;;;;;;3.47;3.17;;;20.50;73.60;;;;;;5050744;28;20199;-47
2023/07/25 02:02:41;;;;;;;8.83;3.67;;;20.60;73.10;;;;;;5050846;28;20242;-47
2023/07/25 02:05:07;;;;;;;2.93;2.70;;;20.60;73.30;;;;;;5050366;28;20193;-48
2023/07/25 02:07:32;;;;;;;5.53;3.47;;;20.50;73.70;;;;;;5050935;28;20204;-46
2023/07/25 02:09:58;;;;;;;5.60;3.03;;;20.50;73.60;;;;;;5050717;28;20210;-47
2023/07/25 02:12:26;;;;;;;5.03;3.10;;;20.60;73.80;;;;;;5050880;28;20304;-48
2023/07/25 02:14:51;;;;;;;3.23;2.93;;;20.60;72.80;;;;;;5054520;28;20236;-47
2023/07/25 02:17:19;;;;;;;3.43;3.13;;;20.70;72.50;;;;;;5055061;28;20490;-44
2023/07/25 02:19:45;;;;;;;3.20;2.90;;;20.60;72.50;;;;;;5054238;28;20223;-44
2023/07/25 02:22:10;;;;;;;4.17;3.77;;;20.60;72.60;;;;;;5053094;28;20431;-48
2023/07/25 02:24:36;;;;;;;4.30;3.40;;;20.70;72.40;;;;;;5055049;28;20192;-47
2023/07/25 02:27:02;;;;;;;3.10;2.90;;;20.50;72.30;;;;;;5054635;28;20188;-47
2023/07/25 02:29:27;;;;;;;3.20;2.90;;;20.40;73.50;;;;;;5054837;28;20287;-45
2023/07/25 02:31:53;;;;;;;3.03;2.77;;;20.10;75.10;;;;;;5054480;28;20596;-45
2023/07/25 02:34:18;;;;;;;3.50;3.20;;;20.20;75.10;;;;;;5054472;28;20196;-44
2023/07/25 02:36:44;;;;;;;6.20;3.40;;;20.30;74.40;;;;;;5054160;28;20228;-48
2023/07/25 02:39:10;;;;;;;3.50;3.20;;;20.30;73.90;;;;;;5055148;28;20188;-46
2023/07/25 02:41:35;;;;;;;4.03;3.70;;;20.30;73.90;;;;;;5053904;28;20193;-44
2023/07/25 02:44:03;;;;;;;8.80;3.50;;;20.40;73.40;;;;;;5054415;28;20195;-47
2023/07/25 02:46:29;;;;;;;4.10;3.70;;;20.60;72.70;;;;;;5054112;28;20584;-46
2023/07/25 02:48:54;;;;;;;4.13;3.20;;;20.70;72.00;;;;;;5053367;28;20484;-47
2023/07/25 02:51:20;;;;;;;4.83;3.00;;;20.80;71.50;;;;;;5054087;28;20254;-44
2023/07/25 02:53:45;;;;;;;3.10;2.90;;;20.90;71.00;;;;;;5054339;28;20231;-44
2023/07/25 02:56:11;;;;;;;3.20;2.90;;;20.90;70.50;;;;;;5053806;28;20663;-48
2023/07/25 02:58:36;;;;;;;7.30;4.07;;;20.90;70.20;;;;;;5054314;28;20307;-46
2023/07/25 03:01:02;;;;;;;4.00;3.50;;;20.80;70.50;;;;;;5053568;28;20224;-46
2023/07/25 03:03:28;;;;;;;3.87;2.93;;;20.90;70.40;;;;;;5054097;28;20276;-47
2023/07/25 03:05:54;;;;;;;3.90;3.27;;;20.90;70.20;;;;;;5053764;28;20433;-48
2023/07/25 03:08:19;;;;;;;3.30;3.00;;;21.00;70.10;;;;;;5054199;28;20368;-48
2023/07/25 03:10:45;;;;;;;3.53;2.97;;;21.00;70.00;;;;;;5053368;28;20684;-44
2023/07/25 03:13:10;;;;;;;4.20;3.60;;;21.00;69.80;;;;;;5053622;28;20193;-44
2023/07/25 03:15:36;;;;;;;6.80;3.40;;;21.00;69.70;;;;;;5051361;28;20308;-49
2023/07/25 03:18:02;;;;;;;4.03;3.37;;;21.10;69.60;;;;;;5053977;28;20224;-46
2023/07/25 03:20:27;;;;;;;4.33;2.90;;;21.10;69.60;;;;;;5053428;28;20196;-48
2023/07/25 03:22:53;;;;;;;3.77;3.37;;;21.10;69.60;;;;;;5053511;28;20189;-47
2023/07/25 03:25:18;;;;;;;3.23;2.90;;;21.00;69.90;;;;;;5052434;28;20219;-42
2023/07/25 03:27:44;;;;;;;4.13;3.73;;;21.10;70.00;;;;;;5053852;28;20242;-47
2023/07/25 03:30:10;;;;;;;5.10;4.60;;;21.10;70.10;;;;;;5053189;28;20647;-47
2023/07/25 03:32:35;;;;;;;4.10;3.73;;;21.00;70.70;;;;;;5053402;28;20259;-48
2023/07/25 03:35:02;;;;;;;4.40;3.83;;;21.00;71.00;;;;;;5052871;28;20196;-47
2023/07/25 03:37:28;;;;;;;3.93;3.63;;;21.00;71.20;;;;;;5053563;28;20597;-48
2023/07/25 03:39:54;;;;;;;4.50;4.10;;;21.00;71.20;;;;;;5053057;28;20419;-44
2023/07/25 03:42:19;;;;;;;4.50;4.03;;;21.00;70.90;;;;;;5051510;28;20246;-48
2023/07/25 03:44:45;;;;;;;6.00;4.70;;;21.10;70.90;;;;;;5052642;28;20193;-49
2023/07/25 03:47:10;;;;;;;3.90;3.50;;;21.10;71.00;;;;;;5053777;28;20682;-49
2023/07/25 03:49:36;;;;;;;4.73;4.20;;;21.10;71.10;;;;;;5053256;28;20191;-47
2023/07/25 03:52:01;;;;;;;3.90;3.60;;;21.10;71.10;;;;;;5052636;28;20195;-45
2023/07/25 03:54:27;;;;;;;3.57;3.27;;;21.00;71.20;;;;;;5053034;28;20193;-46
2023/07/25 03:56:53;;;;;;;5.00;3.80;;;21.00;71.20;;;;;;5052550;28;20209;-49
2023/07/25 03:59:18;;;;;;;3.43;3.13;;;21.10;71.30;;;;;;5053075;28;20203;-44
2023/07/25 04:01:44;;;;;;;5.13;3.63;;;21.00;71.20;;;;;;5052584;28;20191;-45
2023/07/25 04:04:10;;;;;;;4.30;3.90;;;20.90;71.60;;;;;;5052473;28;20189;-48
2023/07/25 04:06:37;;;;;;;6.63;3.60;;;20.70;72.40;;;;;;5052530;28;20201;-48
2023/07/25 04:09:03;;;;;;;4.23;3.83;;;20.60;73.50;;;;;;5051791;28;20188;-43
2023/07/25 04:11:28;;;;;;;4.60;4.20;;;20.50;74.10;;;;;;5052154;28;20534;-46
2023/07/25 04:13:54;;;;;;;4.13;3.47;;;20.50;74.20;;;;;;5052570;28;20780;-44
2023/07/25 04:16:19;;;;;;;3.60;3.10;;;20.50;74.40;;;;;;5052350;28;20220;-47
2023/07/25 04:18:45;;;;;;;4.10;3.70;;;20.50;73.80;;;;;;5052599;28;20232;-43
2023/07/25 04:21:11;;;;;;;4.07;3.77;;;20.40;74.10;;;;;;5052190;28;20196;-46
2023/07/25 04:23:36;;;;;;;4.27;3.87;;;20.30;75.10;;;;;;5052394;28;20199;-46
2023/07/25 04:26:02;;;;;;;5.80;4.40;;;20.40;74.80;;;;;;5052140;28;20563;-47
2023/07/25 04:28:27;;;;;;;4.10;3.70;;;20.30;74.80;;;;;;5052598;28;20235;-48
2023/07/25 04:30:53;;;;;;;6.87;4.20;;;20.30;75.00;;;;;;5052055;28;20289;-43
2023/07/25 04:33:19;;;;;;;5.37;3.70;;;20.20;75.10;;;;;;5051881;28;20215;-47
2023/07/25 04:35:45;;;;;;;4.07;3.77;;;20.20;75.20;;;;;;5051546;28;20537;-43
2023/07/25 04:38:12;;;;;;;4.43;3.93;;;20.20;75.40;;;;;;5051137;28;20315;-44
2023/07/25 04:40:38;;;;;;;4.87;4.37;;;20.20;75.30;;;;;;5051658;28;20453;-47
2023/07/25 04:43:04;;;;;;;4.13;3.73;;;20.20;75.20;;;;;;5052063;28;20838;-48
2023/07/25 04:45:29;;;;;;;5.43;3.80;;;20.30;74.90;;;;;;5051880;28;20423;-45
2023/07/25 04:47:55;;;;;;;3.93;3.63;;;20.40;74.40;;;;;;5052337;28;20616;-43
2023/07/25 04:50:20;;;;;;;5.83;3.47;;;20.60;73.70;;;;;;5051292;28;20246;-45
2023/07/25 04:52:46;;;;;;;4.13;3.70;;;20.70;73.10;;;;;;5051795;28;20895;-48
2023/07/25 04:55:12;;;;;;;4.00;3.63;;;20.80;72.80;;;;;;5051830;28;20224;-44
2023/07/25 04:57:37;;;;;;;3.97;3.57;;;20.80;72.40;;;;;;5051841;28;20651;-43
2023/07/25 05:00:05;;;;;;;4.47;4.00;;;20.80;72.40;;;;;;5051611;28;20499;-46
2023/07/25 05:02:30;;;;;;;3.60;3.33;;;21.00;72.30;;;;;;5051291;28;20184;-43
2023/07/25 05:04:56;;;;;;;3.90;3.60;;;21.00;72.10;;;;;;5050071;28;20427;-43
2023/07/25 05:07:21;;;;;;;3.37;3.17;;;21.10;71.80;;;;;;5051845;28;20552;-48
2023/07/25 05:09:47;;;;;;;4.73;3.83;;;21.10;71.90;;;;;;5051418;28;20196;-47
2023/07/25 05:12:13;;;;;;;6.73;3.63;;;21.00;72.00;;;;;;5051549;28;20668;-44
2023/07/25 05:14:39;;;;;;;4.13;3.50;;;21.10;71.90;;;;;;5051761;28;20240;-46
2023/07/25 05:17:05;;;;;;;3.63;3.33;;;21.20;71.70;;;;;;5051099;28;20510;-47
2023/07/25 05:19:31;;;;;;;3.27;2.97;;;21.30;71.50;;;;;;5051642;28;20458;-45
2023/07/25 05:21:56;;;;;;;4.80;4.40;;;21.30;71.20;;;;;;5050844;28;20536;-43
2023/07/25 05:24:23;;;;;;;3.70;3.40;;;21.40;71.30;;;;;;5051873;28;20242;-42
2023/07/25 05:26:49;;;;;;;4.00;3.57;;;21.40;71.10;;;;;;5050891;28;20275;-47
2023/07/25 05:29:15;;;;;;;5.60;4.10;;;21.40;71.10;;;;;;5051401;28;20519;-43
2023/07/25 05:31:40;;;;;;;4.13;3.63;;;21.40;70.90;;;;;;5049469;28;20621;-42
2023/07/25 05:34:06;;;;;;;4.20;3.80;;;21.40;70.60;;;;;;5051066;28;20640;-45
2023/07/25 05:36:31;;;;;;;4.37;3.97;;;21.40;70.40;;;;;;5050913;28;20196;-47
2023/07/25 05:38:57;;;;;;;4.87;4.10;;;21.50;70.40;;;;;;5051265;28;20798;-44
2023/07/25 05:41:22;;;;;;;4.30;3.80;;;21.50;70.10;;;;;;5050953;28;20192;-43
2023/07/25 05:43:48;;;;;;;6.50;4.20;;;21.40;70.20;;;;;;5049512;28;20196;-46
2023/07/25 05:46:14;;;;;;;4.60;3.67;;;21.50;70.40;;;;;;5050739;28;20683;-43
2023/07/25 05:48:39;;;;;;;8.00;3.90;;;21.50;70.30;;;;;;5050733;28;20279;-48
2023/07/25 05:51:05;;;;;;;3.97;3.57;;;21.50;70.40;;;;;;5050471;28;20693;-43
2023/07/25 05:53:31;;;;;;;3.50;3.20;;;21.50;70.40;;;;;;5050722;28;20626;-43
2023/07/25 05:55:56;;;;;;;4.47;3.03;;;21.60;70.90;;;;;;5050562;28;20227;-43
2023/07/25 05:58:22;;;;;;;4.63;3.13;;;21.50;71.30;;;;;;5049552;28;20502;-43
2023/07/25 06:00:48;;;;;;;4.10;3.43;;;21.60;71.60;;;;;;5050164;28;20199;-45
2023/07/25 06:03:15;;;;;;;4.90;3.97;;;21.60;71.60;;;;;;5049369;28;20197;-43
2023/07/25 06:05:41;;;;;;;5.90;4.00;;;21.70;71.60;;;;;;5050372;28;20839;-43
2023/07/25 06:08:07;;;;;;;6.40;4.07;;;21.70;71.50;;;;;;5051091;28;20431;-44
2023/07/25 06:10:34;;;;;;;5.60;4.07;;;21.70;71.40;;;;;;5050328;28;20434;-47
2023/07/25 06:12:59;;;;;;;4.70;3.77;;;21.80;71.30;;;;;;5050276;28;20435;-43
2023/07/25 06:15:25;;;;;;;3.53;3.23;;;21.80;71.30;;;;;;5050127;28;20466;-43
2023/07/25 06:17:50;;;;;;;4.47;3.30;;;21.80;71.20;;;;;;5050724;28;20232;-45
2023/07/25 06:20:16;;;;;;;7.23;3.73;;;21.80;71.30;;;;;;5050218;28;20196;-46
2023/07/25 06:22:42;;;;;;;7.23;3.40;;;21.90;71.70;;;;;;5050669;28;20196;-43
2023/07/25 06:25:09;;;;;;;6.70;4.23;;;21.90;72.00;;;;;;5048734;28;20192;-43
2023/07/25 06:27:34;;;;;;;6.33;3.83;;;21.90;72.70;;;;;;5050745;28;20679;-44
2023/07/25 06:30:01;;;;;;;6.47;4.00;;;21.90;73.20;;;;;;5050155;28;20428;-45
2023/07/25 06:32:26;;;;;;;4.40;4.00;;;21.90;73.90;;;;;;5050484;28;20207;-45
2023/07/25 06:34:52;;;;;;;5.43;4.37;;;21.80;74.00;;;;;;5050280;28;20435;-46
2023/07/25 06:37:18;;;;;;;6.73;4.07;;;21.90;74.30;;;;;;5050858;28;20228;-46
2023/07/25 06:39:43;;;;;;;5.47;3.97;;;21.90;74.60;;;;;;5049862;28;20200;-43
2023/07/25 06:42:09;;;;;;;6.23;4.20;;;21.80;74.30;;;;;;5050395;28;20193;-43
2023/07/25 06:44:34;;;;;;;7.33;5.50;;;21.90;74.10;;;;;;5050876;28;20196;-43
2023/07/25 06:47:00;;;;;;;5.90;4.13;;;21.90;73.40;;;;;;5050038;28;20636;-44
2023/07/25 06:49:26;;;;;;;4.57;4.17;;;21.70;73.70;;;;;;5050372;28;20246;-44
2023/07/25 06:51:51;;;;;;;5.47;4.20;;;21.60;74.40;;;;;;5048370;28;20204;-44
2023/07/25 06:54:17;;;;;;;5.43;4.67;;;21.70;74.50;;;;;;5051065;28;20267;-43
2023/07/25 06:56:42;;;;;;;4.70;4.20;;;21.70;74.30;;;;;;5050086;28;20191;-43
2023/07/25 06:59:08;;;;;;;5.73;4.67;;;21.80;74.20;;;;;;5051896;28;20204;-46
2023/07/25 07:01:34;;;;;;;5.43;4.83;;;21.90;74.20;;;;;;5053972;28;20246;-44
2023/07/25 07:03:59;;;;;;;8.90;4.90;;;21.90;74.40;;;;;;5054248;28;20239;-43
2023/07/25 07:06:25;;;;;;;7.43;5.13;;;21.90;74.50;;;;;;5054104;28;20199;-43
2023/07/25 07:08:51;;;;;;;6.40;4.37;;;21.90;74.50;;;;;;5054019;28;20197;-43
2023/07/25 07:11:17;;;;;;;8.33;5.47;;;21.90;74.70;;;;;;5053686;28;20249;-44
2023/07/25 07:13:43;;;;;;;5.30;4.03;;;22.00;75.10;;;;;;5053621;28;20232;-43
2023/07/25 07:16:09;;;;;;;6.33;4.20;;;22.00;74.90;;;;;;5053593;28;20441;-44
2023/07/25 07:18:35;;;;;;;8.13;4.90;;;21.90;74.80;;;;;;5052608;28;20325;-44
2023/07/25 07:21:00;;;;;;;5.47;4.60;;;21.90;74.90;;;;;;5053731;28;20507;-45
2023/07/25 07:23:26;;;;;;;10.37;5.07;;;22.00;74.90;;;;;;5053751;28;20566;-45
2023/07/25 07:25:52;;;;;;;7.63;5.37;;;22.00;74.60;;;;;;5053519;28;20652;-44
2023/07/25 07:28:17;;;;;;;5.70;5.00;;;22.00;74.60;;;;;;5054029;28;20200;-44
2023/07/25 07:30:51;;;;;;;5.23;4.40;;;22.00;74.70;;;;;;5053189;28;20200;-43
2023/07/25 07:33:18;;;;;;;6.37;5.40;;;22.10;75.10;;;;;;5053483;28;20613;-43
2023/07/25 07:35:44;;;;;;;7.37;5.00;;;21.90;76.10;;;;;;5053212;28;20427;-45
2023/07/25 07:38:09;;;;;;;6.73;5.10;;;21.80;77.50;;;;;;5053514;28;20481;-43
2023/07/25 07:40:35;;;;;;;6.37;4.90;;;21.60;78.50;;;;;;5053266;28;20188;-43
2023/07/25 07:43:01;;;;;;;6.30;5.50;;;21.40;80.50;;;;;;5053455;28;20192;-44
2023/07/25 07:45:27;;;;;;;6.40;4.40;;;21.30;82.30;;;;;;5051788;28;20200;-45
2023/07/25 07:47:53;;;;;;;7.50;5.10;;;21.30;82.10;;;;;;5053687;28;20200;-44
2023/07/25 07:50:19;;;;;;;6.60;5.37;;;21.40;81.50;;;;;;5052864;28;20419;-44
2023/07/25 07:52:45;;;;;;;7.57;5.53;;;20.90;85.70;;;;;;5053197;28;20427;-43
2023/07/25 07:55:11;;;;;;;6.03;4.80;;;21.00;86.70;;;;;;5053130;28;20462;-43
2023/07/25 07:57:42;;;;;;;5.47;4.90;;;21.00;86.90;;;;;;5053410;28;20474;-44
2023/07/25 08:00:09;;;;;;;5.23;4.73;;;21.10;85.80;;;;;;5052554;28;20914;-44
2023/07/25 08:02:34;;;;;;;6.00;4.70;;;21.00;86.90;;;;;;5052797;28;20795;-43
2023/07/25 08:05:00;;;;;;;5.20;4.27;;;21.10;88.80;;;;;;5052735;28;20423;-44
2023/07/25 08:07:25;;;;;;;4.67;4.27;;;21.00;87.20;;;;;;5053480;28;20193;-43
2023/07/25 08:09:55;;;;;;;5.67;4.20;;;21.10;87.30;;;;;;5052538;28;20205;-45
2023/07/25 08:12:21;;;;;;;8.13;5.00;;;21.10;88.10;;;;;;5050733;28;20180;-44
2023/07/25 08:14:46;;;;;;;4.93;4.00;;;21.20;86.70;;;;;;5052414;28;20475;-43
2023/07/25 08:17:13;;;;;;;4.50;4.10;;;21.50;85.40;;;;;;5052768;28;20956;-43
2023/07/25 08:19:39;;;;;;;7.03;4.57;;;21.40;86.20;;;;;;5052903;28;20189;-43
2023/07/25 08:22:05;;;;;;;4.67;4.23;;;21.60;87.00;;;;;;5052033;28;20423;-43
2023/07/25 08:24:32;;;;;;;6.10;4.50;;;21.90;85.70;;;;;;5052882;28;20189;-44
2023/07/25 08:26:59;;;;;;;4.50;4.20;;;22.20;84.10;;;;;;5052224;28;20326;-43
2023/07/25 08:29:25;;;;;;;5.93;4.03;;;22.40;84.40;;;;;;5053048;28;20522;-43
2023/07/25 08:31:51;;;;;;;4.63;4.23;;;22.70;84.60;;;;;;5051712;28;20437;-43
2023/07/25 08:34:16;;;;;;;4.90;4.10;;;22.90;81.60;;;;;;5052711;28;20950;-44
2023/07/25 08:36:42;;;;;;;5.30;3.87;;;23.20;82.50;;;;;;5051706;28;20555;-43
2023/07/25 08:39:07;;;;;;;3.97;3.40;;;23.60;79.60;;;;;;5050973;28;20192;-43
2023/07/25 08:41:37;;;;;;;3.27;2.97;;;23.50;72.60;;;;;;5051826;28;20193;-43
2023/07/25 08:44:04;;;;;;;5.30;2.73;;;23.60;72.50;;;;;;5052533;28;20203;-47
2023/07/25 08:46:31;;;;;;;4.50;3.00;;;23.90;71.70;;;;;;5051740;28;20778;-48
2023/07/25 08:49:01;;;;;;;3.43;3.10;;;24.00;69.90;;;;;;5052475;28;20427;-43
2023/07/25 08:51:27;;;;;;;3.83;2.90;;;24.20;70.30;;;;;;5051288;28;20949;-46
2023/07/25 08:54:16;;;;;;;3.63;3.33;;;24.30;71.00;;;;;;5052552;28;20415;-47
2023/07/25 08:56:41;;;;;;;4.60;3.20;;;24.50;70.80;;;;;;5051615;28;20438;-49
2023/07/25 08:59:08;;;;;;;4.60;3.50;;;24.50;71.60;;;;;;5052222;28;20419;-47
2023/07/25 09:01:34;;;;;;;4.40;3.70;;;24.60;70.20;;;;;;5051449;28;20195;-46
2023/07/25 09:04:01;;;;;;;4.00;3.40;;;24.60;71.90;;;;;;5052010;28;20485;-47
2023/07/25 09:06:28;;;;;;;7.47;3.30;;;24.70;72.30;;;;;;5050360;28;20423;-49
2023/07/25 09:08:53;;;;;;;5.03;3.27;;;24.90;70.70;;;;;;5051980;28;20431;-46
2023/07/25 09:11:20;;;;;;;3.13;2.83;;;25.00;70.20;;;;;;5051542;28;20918;-47
2023/07/25 09:13:47;;;;;;;3.00;2.80;;;25.10;66.00;;;;;;5051562;28;20288;-47
2023/07/25 09:16:13;;;;;;;3.73;2.73;;;25.10;65.40;;;;;;5051591;28;20478;-48
2023/07/25 09:18:38;;;;;;;6.87;2.87;;;25.00;65.20;;;;;;5051651;28;20518;-45
2023/07/25 09:21:04;;;;;;;5.70;2.73;;;24.90;63.30;;;;;;5051371;28;20567;-48
2023/07/25 09:23:30;;;;;;;4.67;2.50;;;24.70;63.00;;;;;;5050634;28;20216;-49
2023/07/25 09:26:06;;;;;;;4.60;2.80;;;24.60;63.00;;;;;;5051411;28;20415;-46
2023/07/25 09:28:33;;;;;;;3.93;3.07;;;24.50;63.20;;;;;;5051410;28;20287;-48
2023/07/25 09:31:04;;;;;;;3.10;2.80;;;24.60;64.50;;;;;;5051334;28;20790;-48
2023/07/25 09:33:30;;;;;;;4.40;2.40;;;24.40;64.80;;;;;;5049727;28;20480;-49
2023/07/25 09:35:55;;;;;;;5.27;2.80;;;24.40;66.30;;;;;;5051231;28;20828;-47
2023/07/25 09:38:21;;;;;;;2.40;2.20;;;24.50;67.30;;;;;;5051590;28;20486;-47
2023/07/25 09:40:47;;;;;;;4.17;2.27;;;24.50;65.30;;;;;;5051220;28;20188;-48
2023/07/25 09:43:26;;;;;;;5.17;3.17;;;24.50;64.60;;;;;;5050862;28;20251;-47
2023/07/25 09:45:53;;;;;;;4.07;3.67;;;24.50;65.40;;;;;;5051163;28;20490;-46
2023/07/25 09:48:20;;;;;;;3.57;3.27;;;24.60;67.50;;;;;;5051471;28;20431;-45
2023/07/25 09:50:46;;;;;;;3.03;2.13;;;24.80;67.80;;;;;;5050445;28;20534;-46
2023/07/25 09:53:14;;;;;;;2.27;1.77;;;24.80;63.40;;;;;;5050932;28;20439;-49
2023/07/25 09:55:40;;;;;;;2.50;2.30;;;24.40;61.70;;;;;;5050737;28;20438;-46
2023/07/25 09:58:06;;;;;;;3.03;2.30;;;24.20;62.50;;;;;;5051428;28;20486;-48
2023/07/25 10:00:32;;;;;;;3.30;2.13;;;24.10;63.90;;;;;;5049134;28;20453;-47
2023/07/25 10:02:58;;;;;;;2.20;1.90;;;24.20;61.40;;;;;;5050816;28;20721;-47
2023/07/25 10:05:26;;;;;;;2.43;1.90;;;24.10;60.90;;;;;;5050865;28;20188;-49
2023/07/25 10:07:53;;;;;;;3.13;1.73;;;24.20;59.10;;;;;;5051511;28;20430;-49
2023/07/25 10:10:19;;;;;;;1.63;1.53;;;24.30;59.30;;;;;;5050493;28;20468;-49
2023/07/25 10:12:44;;;;;;;2.00;1.80;;;24.40;59.90;;;;;;5050665;28;20584;-48
2023/07/25 10:15:12;;;;;;;3.30;2.40;;;24.30;59.40;;;;;;5050334;28;20532;-48
2023/07/25 10:17:38;;;;;;;4.67;2.20;;;24.10;59.40;;;;;;5051073;28;20225;-46
2023/07/25 10:20:07;;;;;;;2.00;1.80;;;24.20;59.50;;;;;;5050467;28;20446;-48
2023/07/25 10:22:34;;;;;;;4.70;2.00;;;24.20;58.80;;;;;;5050483;28;20202;-49
2023/07/25 10:25:00;;;;;;;2.40;2.00;;;24.30;59.10;;;;;;5050296;28;20435;-46
2023/07/25 10:27:26;;;;;;;3.07;2.03;;;24.50;59.50;;;;;;5049556;28;20462;-48
2023/07/25 10:29:52;;;;;;;1.97;1.77;;;24.60;57.60;;;;;;5050502;28;20841;-49
2023/07/25 10:32:24;;;;;;;2.50;1.83;;;24.60;57.50;;;;;;5050706;28;20854;-47
2023/07/25 10:34:50;;;;;;;3.83;2.97;;;24.60;57.00;;;;;;5052977;28;20246;-48
2023/07/25 10:37:26;;;;;;;1.83;1.73;;;24.60;56.70;;;;;;5054801;28;20846;-47
2023/07/25 10:40:11;;;;;;;2.20;2.00;;;24.30;56.80;;;;;;5054346;28;20430;-49
2023/07/25 10:42:49;;;;;;;2.40;2.20;;;24.30;57.00;;;;;;5054226;28;20489;-46
2023/07/25 10:45:28;;;;;;;2.37;2.07;;;24.30;57.10;;;;;;5054117;28;20482;-47
2023/07/25 10:47:54;;;;;;;2.23;2.03;;;24.60;57.20;;;;;;5054677;28;20933;-46
2023/07/25 10:50:25;;;;;;;3.03;1.53;;;24.60;55.80;;;;;;5053844;28;20450;-49
2023/07/25 10:52:51;;;;;;;1.90;1.80;;;24.80;56.00;;;;;;5053478;28;20434;-44
2023/07/25 10:55:16;;;;;;;2.27;1.50;;;25.00;55.90;;;;;;5053549;28;20904;-47
2023/07/25 10:58:08;;;;;;;1.77;1.40;;;25.30;55.70;;;;;;5054423;28;20573;-49
2023/07/25 11:00:38;;;;;;;2.00;1.50;;;25.40;53.40;;;;;;5053786;28;20197;-47
2023/07/25 11:03:27;;;;;;;1.83;1.60;;;25.40;54.50;;;;;;5054125;28;20442;-44
2023/07/25 11:06:12;;;;;;;2.10;1.60;;;25.40;56.00;;;;;;5053819;28;20434;-49
2023/07/25 11:08:40;;;;;;;3.80;1.80;;;25.00;54.70;;;;;;5054138;28;20914;-47
2023/07/25 11:11:08;;;;;;;2.63;1.70;;;24.80;55.50;;;;;;5053676;28;20461;-47
2023/07/25 11:13:36;;;;;;;3.40;1.77;;;25.00;56.90;;;;;;5053687;28;20877;-47
2023/07/25 11:16:02;;;;;;;1.57;1.30;;;24.60;55.40;;;;;;5053755;28;20760;-48
2023/07/25 11:18:28;;;;;;;2.33;1.67;;;24.40;55.90;;;;;;5052663;28;20581;-46
2023/07/25 11:21:00;;;;;;;1.67;1.53;;;24.30;57.20;;;;;;5052405;28;20864;-45
2023/07/25 11:23:26;;;;;;;2.83;1.67;;;24.50;57.70;;;;;;5053882;28;20195;-44
2023/07/25 11:25:57;;;;;;;1.60;1.40;;;24.60;57.50;;;;;;5053584;28;20419;-46
2023/07/25 11:28:23;;;;;;;1.93;1.83;;;24.50;57.60;;;;;;5054108;28;20196;-49
2023/07/25 11:30:51;;;;;;;1.50;1.40;;;24.40;57.60;;;;;;5053503;28;20518;-43
2023/07/25 11:33:20;;;;;;;2.57;1.40;;;24.10;57.60;;;;;;5053205;28;20431;-44
2023/07/25 11:35:52;;;;;;;1.63;1.50;;;24.20;58.10;;;;;;5053263;28;20922;-47
2023/07/25 11:38:17;;;;;;;2.70;2.33;;;24.40;58.30;;;;;;5053747;28;20513;-48
2023/07/25 11:40:53;;;;;;;1.50;1.40;;;24.80;58.70;;;;;;5053503;28;20927;-48
2023/07/25 11:43:19;;;;;;;1.50;1.40;;;25.00;55.50;;;;;;5053152;28;20269;-44
2023/07/25 11:45:45;;;;;;;1.70;1.60;;;25.10;53.80;;;;;;5052384;28;20565;-43
2023/07/25 11:48:17;;;;;;;2.87;1.50;;;25.00;53.50;;;;;;5052145;28;20423;-45
2023/07/25 11:50:48;;;;;;;1.97;1.30;;;25.00;53.00;;;;;;5052887;28;20419;-43
2023/07/25 11:53:15;;;;;;;1.30;1.20;;;25.10;53.80;;;;;;5053284;28;20423;-44
2023/07/25 11:55:42;;;;;;;2.77;1.60;;;25.50;53.30;;;;;;5052940;28;20837;-46
2023/07/25 11:58:07;;;;;;;1.90;1.50;;;25.60;51.90;;;;;;5053437;28;20490;-43
2023/07/25 12:00:40;;;;;;;2.60;1.53;;;25.60;52.00;;;;;;5052712;28;20430;-43
2023/07/25 12:03:20;;;;;;;1.70;1.37;;;25.60;52.60;;;;;;5052957;28;20274;-44
2023/07/25 12:05:54;;;;;;;1.27;1.17;;;25.40;51.30;;;;;;5052743;28;20518;-44
2023/07/25 12:08:33;;;;;;;1.83;1.73;;;25.50;52.40;;;;;;5053294;28;20897;-45
2023/07/25 12:11:12;;;;;;;1.30;1.20;;;25.50;51.60;;;;;;5052827;28;20462;-47
2023/07/25 12:13:44;;;;;;;1.27;1.17;;;25.70;51.40;;;;;;5046722;28;20466;-44
2023/07/25 12:16:28;;;;;;;3.90;1.50;;;25.40;51.00;;;;;;5052061;28;20424;-45
2023/07/25 12:19:08;;;;;;;1.10;1.00;;;25.20;52.20;;;;;;5053133;28;20536;-43
2023/07/25 12:21:35;;;;;;;1.47;1.20;;;25.00;52.40;;;;;;5052024;28;20514;-44
2023/07/25 12:24:06;;;;;;;1.00;0.90;;;24.70;50.60;;;;;;5053120;28;20426;-44
2023/07/25 12:26:56;;;;;;;4.33;1.17;;;24.40;50.40;;;;;;5051868;28;20934;-44
2023/07/25 12:29:26;;;;;;;1.17;1.00;;;24.10;52.30;;;;;;5053016;28;20439;-44
2023/07/25 12:31:52;;;;;;;1.30;1.20;;;23.90;53.90;;;;;;5051899;28;20777;-47
2023/07/25 12:34:20;;;;;;;1.73;1.10;;;23.90;56.00;;;;;;5052992;28;20443;-45
2023/07/25 12:36:49;;;;;;;3.63;2.10;;;23.80;58.40;;;;;;5052002;28;20431;-46
2023/07/25 12:39:15;;;;;;;4.50;1.50;;;23.70;60.30;;;;;;5052647;28;20419;-45
2023/07/25 12:41:44;;;;;;;3.10;1.83;;;23.60;61.40;;;;;;5050209;28;20430;-43
2023/07/25 12:44:10;;;;;;;2.80;1.57;;;23.60;63.10;;;;;;5052555;28;20446;-46
2023/07/25 12:46:40;;;;;;;3.20;1.50;;;23.70;62.90;;;;;;5052022;28;20430;-44